createdAt,value
2022-09-17T00:01:28.578Z,1.35
2022-09-17T00:03:57.505Z,1.05
2022-09-17T00:06:25.321Z,1.33
2022-09-17T00:08:53.710Z,0.85
2022-09-17T00:11:24.886Z,1.17
2022-09-17T00:13:53.041Z,1.30
2022-09-17T00:16:26.399Z,0.93
2022-09-17T00:18:53.437Z,1.08
2022-09-17T00:21:21.378Z,1.15
2022-09-17T00:23:48.610Z,1.27
2022-09-17T00:26:15.625Z,1.60
2022-09-17T00:28:45.286Z,1.20
2022-09-17T00:31:12.095Z,1.52
2022-09-17T00:33:38.882Z,1.33
2022-09-17T00:36:05.735Z,1.20
2022-09-17T00:38:33.276Z,0.90
2022-09-17T00:41:00.693Z,2.15
2022-09-17T00:43:41.790Z,1.40
2022-09-17T00:46:24.219Z,1.40
2022-09-17T00:48:53.722Z,0.93
2022-09-17T00:51:27.067Z,1.35
2022-09-17T00:53:54.539Z,0.93
2022-09-17T00:56:27.619Z,1.20
2022-09-17T00:58:55.434Z,0.98
2022-09-17T01:01:22.348Z,1.75
2022-09-17T01:03:49.267Z,1.00
2022-09-17T01:06:24.859Z,1.20
2022-09-17T01:09:23.390Z,1.35
2022-09-17T01:12:22.171Z,1.20
2022-09-17T01:15:18.620Z,0.93
2022-09-17T01:18:00.971Z,1.08
2022-09-17T01:20:39.955Z,1.30
2022-09-17T01:23:24.756Z,1.40
2022-09-17T01:26:13.407Z,1.17
2022-09-17T01:28:57.131Z,1.08
2022-09-17T01:31:49.083Z,1.45
2022-09-17T01:34:49.664Z,1.23
2022-09-17T01:37:39.472Z,1.45
2022-09-17T01:40:17.282Z,1.55
2022-09-17T01:42:51.627Z,1.10
2022-09-17T01:45:27.936Z,1.25
2022-09-17T01:47:59.424Z,1.77
2022-09-17T01:50:32.479Z,1.55
2022-09-17T01:53:00.074Z,1.73
2022-09-17T01:55:32.534Z,1.40
2022-09-17T01:58:11.043Z,1.27
2022-09-17T02:00:42.340Z,1.58
2022-09-17T02:03:24.223Z,1.63
2022-09-17T02:06:12.966Z,1.15
2022-09-17T02:08:54.850Z,1.50
2022-09-17T02:11:21.562Z,1.50
2022-09-17T02:14:05.751Z,1.35
2022-09-17T02:16:35.961Z,1.25
2022-09-17T02:19:09.322Z,1.30
2022-09-17T02:22:00.996Z,1.27
2022-09-17T02:24:44.378Z,1.40
2022-09-17T02:27:33.980Z,2.72
2022-09-17T02:30:00.650Z,1.65
2022-09-17T02:32:27.787Z,0.98
2022-09-17T02:34:54.482Z,2.13
2022-09-17T02:37:21.219Z,1.50
2022-09-17T02:39:47.921Z,1.92
2022-09-17T02:42:39.309Z,1.15
2022-09-17T02:45:46.120Z,1.50
2022-09-17T02:48:45.960Z,1.30
2022-09-17T02:51:44.799Z,1.50
2022-09-17T02:54:45.934Z,1.20
2022-09-17T02:57:23.481Z,1.38
2022-09-17T03:00:09.348Z,1.35
2022-09-17T03:03:08.705Z,2.10
2022-09-17T03:05:37.959Z,1.80
2022-09-17T03:08:09.300Z,1.73
2022-09-17T03:10:35.910Z,1.40
2022-09-17T03:13:03.057Z,1.55
2022-09-17T03:15:30.048Z,1.55
2022-09-17T03:17:56.709Z,1.67
2022-09-17T03:20:23.548Z,1.20
2022-09-17T03:22:52.195Z,2.15
2022-09-17T03:25:18.876Z,1.30
2022-09-17T03:27:45.561Z,1.00
2022-09-17T03:30:12.305Z,1.40
2022-09-17T03:32:38.922Z,1.55
2022-09-17T03:35:05.658Z,1.60
2022-09-17T03:37:33.172Z,1.42
2022-09-17T03:40:00.328Z,1.38
2022-09-17T03:42:27.134Z,1.65
2022-09-17T03:44:53.732Z,1.15
2022-09-17T03:47:20.350Z,1.55
2022-09-17T03:49:46.936Z,1.48
2022-09-17T03:52:13.563Z,1.50
2022-09-17T03:54:40.279Z,1.58
2022-09-17T03:57:06.888Z,2.13
2022-09-17T03:59:33.526Z,1.70
2022-09-17T04:02:00.314Z,1.67
2022-09-17T04:04:27.087Z,1.52
2022-09-17T04:06:54.443Z,1.67
2022-09-17T04:09:21.104Z,1.30
2022-09-17T04:11:47.767Z,1.13
2022-09-17T04:14:14.423Z,1.67
2022-09-17T04:16:41.102Z,1.52
2022-09-17T04:19:07.829Z,1.35
2022-09-17T04:21:34.642Z,2.17
2022-09-17T04:24:01.437Z,1.58
2022-09-17T04:26:28.090Z,1.30
2022-09-17T04:28:54.688Z,1.65
2022-09-17T04:31:22.631Z,1.30
2022-09-17T04:33:49.335Z,2.17
2022-09-17T04:36:16.181Z,1.30
2022-09-17T04:38:42.895Z,1.23
2022-09-17T04:41:09.633Z,1.30
2022-09-17T04:43:36.317Z,1.45
2022-09-17T04:46:02.917Z,1.20
2022-09-17T04:48:29.609Z,1.27
2022-09-17T04:50:56.344Z,1.17
2022-09-17T04:53:23.076Z,1.13
2022-09-17T04:55:49.709Z,1.23
2022-09-17T04:58:16.435Z,1.67
2022-09-17T05:00:43.326Z,1.80
2022-09-17T05:03:10.001Z,1.63
2022-09-17T05:05:36.593Z,1.60
2022-09-17T05:08:03.536Z,1.23
2022-09-17T05:10:31.355Z,2.00
2022-09-17T05:12:58.040Z,1.98
2022-09-17T05:15:25.882Z,1.27
2022-09-17T05:17:52.759Z,1.67
2022-09-17T05:20:20.025Z,1.40
2022-09-17T05:22:48.952Z,1.88
2022-09-17T05:25:17.281Z,1.10
2022-09-17T05:27:44.140Z,1.65
2022-09-17T05:30:11.843Z,1.17
2022-09-17T05:32:39.100Z,1.25
2022-09-17T05:35:07.061Z,1.55
2022-09-17T05:37:34.194Z,1.27
2022-09-17T05:40:01.037Z,1.70
2022-09-17T05:42:27.812Z,1.23
2022-09-17T05:44:54.400Z,1.08
2022-09-17T05:47:21.034Z,1.40
2022-09-17T05:49:47.609Z,1.95
2022-09-17T05:52:14.366Z,1.10
2022-09-17T05:54:41.059Z,1.20
2022-09-17T05:57:07.840Z,1.55
2022-09-17T05:59:35.912Z,2.08
2022-09-17T06:02:02.607Z,1.55
2022-09-17T06:04:32.775Z,1.23
2022-09-17T06:07:06.508Z,1.10
2022-09-17T06:09:35.509Z,1.10
2022-09-17T06:12:02.445Z,1.20
2022-09-17T06:14:29.041Z,1.40
2022-09-17T06:16:56.390Z,1.15
2022-09-17T06:19:23.042Z,1.27
2022-09-17T06:21:50.394Z,1.45
2022-09-17T06:24:17.255Z,1.02
2022-09-17T06:26:43.996Z,0.98
2022-09-17T06:29:10.632Z,1.17
2022-09-17T06:31:37.332Z,1.10
2022-09-17T06:34:05.495Z,1.30
2022-09-17T06:36:32.111Z,1.13
2022-09-17T06:38:58.806Z,1.40
2022-09-17T06:41:25.427Z,1.02
2022-09-17T06:43:54.800Z,1.30
2022-09-17T06:46:21.503Z,1.40
2022-09-17T06:48:48.204Z,1.30
2022-09-17T06:51:15.060Z,1.20
2022-09-17T06:53:41.698Z,1.20
2022-09-17T06:56:09.535Z,1.50
2022-09-17T06:58:37.185Z,1.30
2022-09-17T07:01:05.473Z,1.10
2022-09-17T07:03:32.243Z,1.15
2022-09-17T07:05:59.010Z,1.00
2022-09-17T07:08:26.320Z,0.85
2022-09-17T07:10:56.907Z,1.05
2022-09-17T07:13:24.475Z,0.95
2022-09-17T07:15:59.670Z,0.85
2022-09-17T07:18:26.664Z,1.38
2022-09-17T07:20:58.537Z,1.10
2022-09-17T07:23:27.564Z,1.42
2022-09-17T07:25:59.441Z,1.23
2022-09-17T07:28:28.626Z,1.05
2022-09-17T07:30:55.951Z,1.05
2022-09-17T07:33:26.027Z,0.80
2022-09-17T07:35:54.716Z,1.13
2022-09-17T07:38:22.662Z,0.95
2022-09-17T07:40:55.644Z,1.00
2022-09-17T07:43:22.254Z,1.10
2022-09-17T07:45:48.873Z,1.25
2022-09-17T07:48:15.552Z,1.10
2022-09-17T07:50:42.159Z,0.98
2022-09-17T07:53:08.795Z,1.00
2022-09-17T07:55:35.442Z,1.20
2022-09-17T07:58:02.072Z,0.88
2022-09-17T08:00:28.699Z,1.60
2022-09-17T08:02:56.016Z,1.45
2022-09-17T08:05:24.597Z,1.50
2022-09-17T08:07:55.410Z,1.25
2022-09-17T08:10:23.377Z,1.42
2022-09-17T08:12:50.801Z,0.95
2022-09-17T08:15:18.605Z,1.20
2022-09-17T08:17:46.531Z,1.48
2022-09-17T08:20:14.435Z,1.30
2022-09-17T08:22:41.594Z,1.10
2022-09-17T08:25:09.840Z,1.45
2022-09-17T08:27:38.820Z,1.55
2022-09-17T08:30:07.112Z,1.00
2022-09-17T08:32:34.103Z,0.93
2022-09-17T08:35:00.740Z,1.08
2022-09-17T08:37:31.804Z,1.42
2022-09-17T08:39:58.558Z,1.17
2022-09-17T08:42:33.405Z,1.02
2022-09-17T08:45:05.646Z,1.08
2022-09-17T08:47:38.545Z,1.00
2022-09-17T08:50:15.085Z,0.80
2022-09-17T08:53:10.281Z,1.42
2022-09-17T08:55:42.537Z,0.90
2022-09-17T08:58:36.464Z,0.93
2022-09-17T09:01:11.928Z,1.40
2022-09-17T09:04:07.263Z,0.98
2022-09-17T09:06:42.316Z,0.60
2022-09-17T09:09:24.300Z,0.65
2022-09-17T09:12:00.596Z,0.80
2022-09-17T09:14:36.748Z,1.10
2022-09-17T09:17:07.808Z,0.80
2022-09-17T09:19:44.255Z,0.90
2022-09-17T09:22:32.441Z,0.60
2022-09-17T09:25:23.104Z,1.00
2022-09-17T09:27:52.729Z,0.70
2022-09-17T09:30:23.548Z,0.85
2022-09-17T09:33:04.774Z,0.90
2022-09-17T09:35:34.589Z,1.00
2022-09-17T09:38:20.149Z,1.10
2022-09-17T09:40:53.057Z,1.23
2022-09-17T09:44:04.005Z,1.23
2022-09-17T09:47:00.347Z,0.75
2022-09-17T09:49:46.143Z,0.50
2022-09-17T09:52:40.975Z,0.70
2022-09-17T09:55:47.891Z,0.60
2022-09-17T09:58:39.871Z,0.70
2022-09-17T10:01:14.914Z,0.68
2022-09-17T10:03:45.859Z,0.77
2022-09-17T10:06:13.983Z,0.60
2022-09-17T10:08:43.564Z,1.02
2022-09-17T10:11:13.217Z,0.40
2022-09-17T10:13:40.722Z,0.30
2022-09-17T10:16:29.208Z,0.50
2022-09-17T10:19:08.134Z,0.80
2022-09-17T10:21:35.953Z,0.40
2022-09-17T10:24:05.039Z,0.55
2022-09-17T10:26:36.978Z,0.65
2022-09-17T10:29:06.725Z,0.55
2022-09-17T10:32:06.910Z,0.65
2022-09-17T10:34:34.189Z,0.40
2022-09-17T10:37:00.814Z,1.00
2022-09-17T10:39:34.335Z,0.70
2022-09-17T10:42:04.481Z,0.50
2022-09-17T10:44:36.733Z,0.40
2022-09-17T10:47:18.940Z,0.55
2022-09-17T10:49:53.395Z,0.70
2022-09-17T10:52:38.785Z,0.55
2022-09-17T10:55:14.322Z,0.50
2022-09-17T10:58:04.952Z,0.32
2022-09-17T11:00:58.097Z,0.52
2022-09-17T11:03:33.488Z,0.60
2022-09-17T11:06:24.842Z,0.40
2022-09-17T11:08:57.351Z,0.50
2022-09-17T11:11:49.851Z,0.40
2022-09-17T11:14:54.895Z,0.43
2022-09-17T11:17:30.041Z,0.40
2022-09-17T11:20:19.990Z,0.22
2022-09-17T11:23:18.760Z,0.45
2022-09-17T11:25:57.181Z,0.80
2022-09-17T11:28:59.377Z,0.60
2022-09-17T11:31:54.402Z,0.40
2022-09-17T11:34:42.328Z,0.60
2022-09-17T11:37:31.146Z,0.47
2022-09-17T11:40:26.726Z,0.50
2022-09-17T11:43:11.961Z,0.50
2022-09-17T11:45:45.317Z,0.63
2022-09-17T11:48:17.120Z,0.57
2022-09-17T11:50:49.519Z,0.70
2022-09-17T11:53:32.176Z,0.30
2022-09-17T11:56:21.154Z,0.50
2022-09-17T11:59:13.269Z,0.40
2022-09-17T12:01:59.865Z,0.68
2022-09-17T12:04:45.535Z,0.60
2022-09-17T12:07:51.148Z,0.52
2022-09-17T12:10:29.027Z,0.60
2022-09-17T12:13:18.399Z,0.60
2022-09-17T12:15:53.716Z,0.75
2022-09-17T12:18:58.280Z,0.38
2022-09-17T12:21:36.906Z,0.50
2022-09-17T12:24:23.370Z,0.70
2022-09-17T12:27:06.292Z,0.45
2022-09-17T12:29:44.829Z,0.52
2022-09-17T12:32:50.103Z,0.47
2022-09-17T12:35:41.044Z,0.50
2022-09-17T12:38:44.731Z,0.40
2022-09-17T12:41:17.296Z,0.15
2022-09-17T12:43:50.860Z,0.50
2022-09-17T12:46:42.938Z,0.30
2022-09-17T12:49:23.003Z,0.40
2022-09-17T12:52:03.810Z,0.30
2022-09-17T12:54:44.505Z,0.38
2022-09-17T12:57:42.213Z,0.30
2022-09-17T13:00:10.647Z,0.35
2022-09-17T13:02:43.320Z,0.60
2022-09-17T13:05:25.028Z,0.55
2022-09-17T13:08:16.307Z,0.60
2022-09-17T13:11:01.795Z,0.60
2022-09-17T13:13:28.378Z,0.50
2022-09-17T13:16:33.366Z,0.45
2022-09-17T13:19:15.694Z,0.52
2022-09-17T13:21:49.643Z,0.55
2022-09-17T13:24:18.306Z,0.32
2022-09-17T13:26:46.105Z,0.30
2022-09-17T13:29:33.224Z,0.50
2022-09-17T13:31:59.863Z,0.40
2022-09-17T13:34:29.685Z,0.60
2022-09-17T13:37:01.857Z,0.40
2022-09-17T13:39:40.613Z,0.47
2022-09-17T13:42:39.499Z,0.40
2022-09-17T13:45:16.072Z,0.40
2022-09-17T13:48:05.997Z,0.60
2022-09-17T13:50:40.043Z,0.32
2022-09-17T13:53:12.873Z,0.45
2022-09-17T13:55:43.941Z,0.60
2022-09-17T13:58:27.300Z,0.70
2022-09-17T14:00:56.072Z,0.52
2022-09-17T14:03:28.836Z,0.60
2022-09-17T14:05:56.107Z,0.47
2022-09-17T14:08:31.022Z,0.63
2022-09-17T14:11:00.641Z,0.60
2022-09-17T14:13:36.350Z,0.55
2022-09-17T14:16:22.364Z,0.50
2022-09-17T14:18:58.973Z,0.40
2022-09-17T14:21:35.639Z,0.80
2022-09-17T14:24:19.948Z,0.50
2022-09-17T14:27:10.936Z,0.88
2022-09-17T14:30:05.414Z,0.60
2022-09-17T14:32:36.284Z,0.80
2022-09-17T14:35:17.863Z,1.15
2022-09-17T14:37:51.993Z,1.15
2022-09-17T14:40:20.885Z,0.63
2022-09-17T14:42:52.075Z,0.65
2022-09-17T14:45:26.727Z,0.60
2022-09-17T14:48:29.129Z,0.50
2022-09-17T14:51:17.806Z,0.75
2022-09-17T14:54:20.054Z,0.52
2022-09-17T14:56:51.770Z,0.80
2022-09-17T14:59:29.911Z,0.40
2022-09-17T15:01:56.884Z,0.45
2022-09-17T15:04:26.332Z,0.40
2022-09-17T15:06:53.404Z,0.55
2022-09-17T15:09:25.563Z,0.45
2022-09-17T15:11:58.413Z,0.40
2022-09-17T15:14:30.130Z,0.82
2022-09-17T15:16:59.402Z,0.75
2022-09-17T15:19:38.311Z,0.82
2022-09-17T15:22:20.611Z,0.57
2022-09-17T15:24:55.737Z,0.70
2022-09-17T15:27:25.238Z,0.80
2022-09-17T15:29:56.732Z,0.70
2022-09-17T15:32:23.496Z,0.70
2022-09-17T15:35:15.334Z,0.80
2022-09-17T15:40:42.894Z,0.63
2022-09-17T15:43:26.662Z,0.98
2022-09-17T15:45:54.058Z,0.90
2022-09-17T15:48:34.139Z,0.70
2022-09-17T15:51:02.397Z,0.80
2022-09-17T15:53:31.236Z,1.02
2022-09-17T15:56:13.071Z,0.60
2022-09-17T15:58:42.545Z,0.90
2022-09-17T16:01:32.201Z,0.95
2022-09-17T16:03:58.821Z,1.17
2022-09-17T16:06:25.550Z,1.60
2022-09-17T16:09:00.636Z,0.90
2022-09-17T16:11:31.734Z,1.20
2022-09-17T16:14:00.844Z,1.15
2022-09-17T16:16:33.362Z,1.17
2022-09-17T16:19:00.371Z,1.00
2022-09-17T16:21:27.470Z,1.10
2022-09-17T16:23:54.076Z,1.17
2022-09-17T16:26:23.274Z,1.10
2022-09-17T16:28:53.559Z,1.23
2022-09-17T16:31:20.872Z,1.13
2022-09-17T16:33:47.523Z,1.13
2022-09-17T16:36:16.835Z,1.02
2022-09-17T16:38:43.446Z,0.75
2022-09-17T16:41:10.114Z,1.00
2022-09-17T16:43:38.253Z,1.10
2022-09-17T16:46:10.659Z,1.00
2022-09-17T16:48:38.085Z,0.68
2022-09-17T16:51:09.162Z,0.80
2022-09-17T16:53:35.959Z,0.70
2022-09-17T16:56:13.618Z,0.82
2022-09-17T16:58:41.434Z,1.00
2022-09-17T17:01:13.415Z,0.90
2022-09-17T17:03:40.334Z,1.13
2022-09-17T17:06:07.156Z,0.60
2022-09-17T17:08:34.314Z,1.23
2022-09-17T17:11:01.344Z,0.52
2022-09-17T17:13:28.080Z,0.63
2022-09-17T17:15:55.252Z,0.70
2022-09-17T17:18:22.621Z,0.57
2022-09-17T17:20:49.401Z,0.75
2022-09-17T17:23:16.801Z,0.73
2022-09-17T17:25:43.544Z,0.70
2022-09-17T17:28:10.869Z,0.75
2022-09-17T17:30:38.317Z,1.02
2022-09-17T17:33:05.356Z,1.13
2022-09-17T17:35:32.329Z,1.13
2022-09-17T17:37:58.941Z,0.93
2022-09-17T17:40:26.620Z,0.63
2022-09-17T17:42:53.531Z,0.98
2022-09-17T17:45:20.130Z,0.90
2022-09-17T17:47:46.678Z,0.65
2022-09-17T17:50:13.379Z,0.98
2022-09-17T17:52:43.246Z,0.73
2022-09-17T17:55:10.003Z,1.00
2022-09-17T17:57:36.626Z,0.68
2022-09-17T18:00:03.882Z,0.88
2022-09-17T18:02:39.077Z,1.00
2022-09-17T18:05:06.429Z,0.85
2022-09-17T18:07:33.528Z,0.90
2022-09-17T18:10:00.317Z,1.00
2022-09-17T18:12:27.281Z,0.90
2022-09-17T18:14:53.998Z,1.10
2022-09-17T18:17:20.972Z,0.82
2022-09-17T18:19:47.572Z,0.93
2022-09-17T18:22:14.194Z,1.00
2022-09-17T18:24:40.813Z,0.82
2022-09-17T18:27:07.449Z,1.00
2022-09-17T18:29:34.048Z,0.90
2022-09-17T18:32:00.796Z,0.82
2022-09-17T18:34:27.442Z,0.55
2022-09-17T18:36:54.075Z,0.68
2022-09-17T18:39:57.037Z,0.90
2022-09-17T18:42:08.591Z,0.75
2022-09-17T18:44:36.533Z,0.90
2022-09-17T18:47:03.178Z,1.38
2022-09-17T18:49:29.842Z,0.93
2022-09-17T18:51:56.441Z,1.10
2022-09-17T18:54:23.065Z,0.90
2022-09-17T18:56:49.879Z,0.80
2022-09-17T18:59:16.536Z,0.93
2022-09-17T19:01:43.155Z,1.00
2022-09-17T19:04:11.137Z,1.05
2022-09-17T19:06:37.924Z,1.38
2022-09-17T19:09:05.018Z,2.40
2022-09-17T19:11:31.716Z,1.52
2022-09-17T19:13:58.919Z,1.30
2022-09-17T19:16:25.906Z,1.08
2022-09-17T19:18:52.697Z,1.00
2022-09-17T19:21:21.622Z,1.45
2022-09-17T19:23:50.678Z,1.35
2022-09-17T19:26:20.677Z,1.10
2022-09-17T19:28:47.332Z,1.05
2022-09-17T19:31:16.553Z,1.00
2022-09-17T19:33:44.318Z,0.80
2022-09-17T19:36:13.691Z,1.00
2022-09-17T19:38:40.494Z,0.88
2022-09-17T19:41:12.561Z,0.82
2022-09-17T19:43:40.168Z,1.77
2022-09-17T19:46:10.141Z,1.00
2022-09-17T19:48:37.117Z,1.30
2022-09-17T19:51:06.287Z,0.95
2022-09-17T19:53:33.424Z,0.95
2022-09-17T19:56:00.889Z,0.80
2022-09-17T19:58:27.693Z,1.17
2022-09-17T20:00:55.907Z,0.98
2022-09-17T20:03:22.837Z,1.10
2022-09-17T20:05:49.815Z,1.83
2022-09-17T20:08:16.444Z,1.00
2022-09-17T20:10:43.202Z,1.42
2022-09-17T20:13:09.801Z,0.68
2022-09-17T20:15:36.645Z,1.02
2022-09-17T20:18:05.829Z,0.80
2022-09-17T20:20:32.591Z,1.17
2022-09-17T20:22:59.269Z,1.73
2022-09-17T20:25:26.301Z,4.22
2022-09-17T20:27:53.207Z,1.58
2022-09-17T20:30:19.868Z,1.10
2022-09-17T20:32:47.777Z,1.20
2022-09-17T20:35:14.650Z,1.23
2022-09-17T20:38:44.503Z,1.00
2022-09-17T20:40:31.121Z,0.88
2022-09-17T20:42:57.879Z,0.90
2022-09-17T20:45:24.569Z,1.00
2022-09-17T20:47:51.252Z,1.08
2022-09-17T20:50:17.878Z,0.82
2022-09-17T20:52:44.466Z,0.60
2022-09-17T20:55:11.070Z,0.85
2022-09-17T20:57:37.916Z,0.93
2022-09-17T21:00:17.481Z,1.02
2022-09-17T21:02:50.293Z,0.90
2022-09-17T21:05:19.875Z,1.10
2022-09-17T21:07:46.570Z,1.08
2022-09-17T21:10:13.423Z,1.00
2022-09-17T21:12:40.111Z,1.08
2022-09-17T21:15:07.293Z,1.27
2022-09-17T21:17:34.531Z,1.20
2022-09-17T21:20:01.391Z,0.95
2022-09-17T21:22:28.074Z,0.75
2022-09-17T21:24:54.673Z,1.02
2022-09-17T21:27:21.434Z,0.90
2022-09-17T21:29:48.062Z,1.10
2022-09-17T21:32:14.689Z,0.88
2022-09-17T21:34:41.308Z,0.93
2022-09-17T21:37:07.923Z,0.85
2022-09-17T21:39:35.464Z,0.90
2022-09-17T21:42:02.073Z,1.48
2022-09-17T21:44:28.681Z,2.50
2022-09-17T21:46:57.510Z,2.58
2022-09-17T21:49:24.918Z,1.40
2022-09-17T21:51:51.609Z,2.22
2022-09-17T21:54:18.723Z,2.17
2022-09-17T21:56:46.098Z,3.10
2022-09-17T21:59:14.351Z,4.35
2022-09-17T22:01:46.009Z,5.00
2022-09-17T22:04:15.599Z,2.22
2022-09-17T22:06:43.317Z,1.95
2022-09-17T22:09:22.024Z,1.05
2022-09-17T22:11:49.296Z,1.15
2022-09-17T22:14:21.143Z,1.10
2022-09-17T22:16:50.768Z,1.52
2022-09-17T22:19:19.215Z,1.20
2022-09-17T22:21:51.178Z,1.30
2022-09-17T22:24:19.636Z,1.35
2022-09-17T22:26:54.146Z,1.33
2022-09-17T22:29:24.561Z,1.42
2022-09-17T22:31:51.264Z,1.08
2022-09-17T22:34:20.909Z,1.25
2022-09-17T22:36:48.357Z,0.88
2022-09-17T22:39:15.832Z,0.95
2022-09-17T22:41:45.742Z,1.00
2022-09-17T22:44:17.740Z,0.85
2022-09-17T22:46:46.369Z,0.50
2022-09-17T22:49:13.630Z,0.88
2022-09-17T22:51:40.681Z,0.80
2022-09-17T22:54:10.101Z,1.00
2022-09-17T22:56:36.801Z,1.33
2022-09-17T22:59:04.231Z,0.73
2022-09-17T23:01:33.713Z,0.77
2022-09-17T23:04:01.038Z,1.00
2022-09-17T23:06:30.123Z,1.45
2022-09-17T23:08:58.363Z,1.20
2022-09-17T23:11:33.163Z,0.90
2022-09-17T23:14:02.817Z,0.80
2022-09-17T23:16:38.081Z,1.00
2022-09-17T23:19:05.165Z,0.80
2022-09-17T23:21:32.082Z,0.90
2022-09-17T23:23:58.837Z,1.02
2022-09-17T23:26:26.987Z,0.70
2022-09-17T23:28:53.958Z,0.93
2022-09-17T23:31:24.843Z,0.90
2022-09-17T23:33:52.366Z,0.70
2022-09-17T23:36:21.692Z,0.77
2022-09-17T23:38:48.966Z,0.75
2022-09-17T23:41:20.138Z,1.05
2022-09-17T23:43:49.729Z,1.00
2022-09-17T23:46:17.508Z,0.98
2022-09-17T23:48:45.594Z,0.85
2022-09-17T23:51:12.313Z,0.80
2022-09-17T23:53:39.053Z,0.95
2022-09-17T23:56:14.649Z,0.70
2022-09-17T23:58:41.645Z,1.15
